La Palma Islan, Spain
Current Conditions -  °F | °C
As of 9:00 PM on Thursday 18 Dec 2014 (Local Time) from GCLA Reporting Station
Overcast Overcast  
Wind Chill: 68°   Ceiling: 4500
Heat Index: 68°   Visibility: 6mi
Dew Point: 59°   Wind: 10mph
Humidity: 73%   Direction: 20°NNE
Pressure: 30.3"   Gusts: NA
Location:  28.62°N, 17.75°W
Report Text: GCLA 182100Z 02009KT 320V050 9999 FEW025 OVC045 20/15 Q1026
Loading
Personal Weather Stations






























Interactive Weather Map New forecast layout! Learn more

10-Day Weather Forecast

Advertisements
Track Severe Weather on mobile